sensor_id;sensor_type;location;lat;lon;timestamp;P1;durP1;ratioP1;P2;durP2;ratioP2
27505;SDS011;14939;43.596;1.320;2022-09-14T00:01:48;11.70;;;3.35;;
27505;SDS011;14939;43.596;1.320;2022-09-14T00:04:15;10.73;;;3.00;;
27505;SDS011;14939;43.596;1.320;2022-09-14T00:06:42;10.40;;;2.92;;
27505;SDS011;14939;43.596;1.320;2022-09-14T00:09:17;7.63;;;2.75;;
27505;SDS011;14939;43.596;1.320;2022-09-14T00:11:45;9.10;;;2.97;;
27505;SDS011;14939;43.596;1.320;2022-09-14T00:14:12;7.10;;;2.72;;
27505;SDS011;14939;43.596;1.320;2022-09-14T00:16:38;9.18;;;2.65;;
27505;SDS011;14939;43.596;1.320;2022-09-14T00:19:16;7.40;;;2.10;;
27505;SDS011;14939;43.596;1.320;2022-09-14T00:21:44;6.80;;;2.70;;
27505;SDS011;14939;43.596;1.320;2022-09-14T00:24:10;10.25;;;3.13;;
27505;SDS011;14939;43.596;1.320;2022-09-14T00:26:36;8.73;;;2.50;;
27505;SDS011;14939;43.596;1.320;2022-09-14T00:29:02;5.55;;;2.10;;
27505;SDS011;14939;43.596;1.320;2022-09-14T00:31:30;7.82;;;2.75;;
27505;SDS011;14939;43.596;1.320;2022-09-14T00:33:57;7.60;;;2.75;;
27505;SDS011;14939;43.596;1.320;2022-09-14T00:36:24;8.05;;;2.33;;
27505;SDS011;14939;43.596;1.320;2022-09-14T00:38:51;8.35;;;2.38;;
27505;SDS011;14939;43.596;1.320;2022-09-14T00:41:24;7.30;;;2.60;;
27505;SDS011;14939;43.596;1.320;2022-09-14T00:44:53;7.53;;;2.75;;
27505;SDS011;14939;43.596;1.320;2022-09-14T00:46:52;7.43;;;2.55;;
27505;SDS011;14939;43.596;1.320;2022-09-14T00:49:21;7.95;;;2.92;;
27505;SDS011;14939;43.596;1.320;2022-09-14T00:51:57;9.07;;;2.75;;
27505;SDS011;14939;43.596;1.320;2022-09-14T00:54:43;7.82;;;2.88;;
27505;SDS011;14939;43.596;1.320;2022-09-14T00:57:21;9.35;;;2.80;;
27505;SDS011;14939;43.596;1.320;2022-09-14T00:59:49;9.57;;;3.20;;
27505;SDS011;14939;43.596;1.320;2022-09-14T01:02:18;12.02;;;3.67;;
27505;SDS011;14939;43.596;1.320;2022-09-14T01:04:46;9.82;;;2.65;;
27505;SDS011;14939;43.596;1.320;2022-09-14T01:07:17;7.65;;;2.60;;
27505;SDS011;14939;43.596;1.320;2022-09-14T01:18:27;9.63;;;2.58;;
27505;SDS011;14939;43.596;1.320;2022-09-14T01:21:09;7.28;;;2.45;;
27505;SDS011;14939;43.596;1.320;2022-09-14T01:26:28;8.00;;;2.38;;
27505;SDS011;14939;43.596;1.320;2022-09-14T01:29:23;8.30;;;2.53;;
27505;SDS011;14939;43.596;1.320;2022-09-14T01:34:38;7.88;;;2.30;;
27505;SDS011;14939;43.596;1.320;2022-09-14T01:37:06;5.78;;;1.75;;
27505;SDS011;14939;43.596;1.320;2022-09-14T01:39:54;8.63;;;2.10;;
27505;SDS011;14939;43.596;1.320;2022-09-14T01:45:14;8.00;;;2.83;;
27505;SDS011;14939;43.596;1.320;2022-09-14T01:47:47;6.22;;;2.47;;
27505;SDS011;14939;43.596;1.320;2022-09-14T01:50:20;9.88;;;3.10;;
27505;SDS011;14939;43.596;1.320;2022-09-14T01:52:56;9.70;;;2.90;;
27505;SDS011;14939;43.596;1.320;2022-09-14T01:55:29;10.45;;;2.78;;
27505;SDS011;14939;43.596;1.320;2022-09-14T01:58:01;8.25;;;3.47;;
27505;SDS011;14939;43.596;1.320;2022-09-14T02:00:35;6.95;;;2.90;;
27505;SDS011;14939;43.596;1.320;2022-09-14T02:03:07;12.20;;;3.78;;
27505;SDS011;14939;43.596;1.320;2022-09-14T02:05:48;8.43;;;3.30;;
27505;SDS011;14939;43.596;1.320;2022-09-14T02:08:20;11.27;;;4.18;;
27505;SDS011;14939;43.596;1.320;2022-09-14T02:10:46;12.02;;;3.78;;
27505;SDS011;14939;43.596;1.320;2022-09-14T02:13:12;10.90;;;4.00;;
27505;SDS011;14939;43.596;1.320;2022-09-14T02:15:38;10.07;;;3.70;;
27505;SDS011;14939;43.596;1.320;2022-09-14T02:18:04;10.52;;;3.60;;
27505;SDS011;14939;43.596;1.320;2022-09-14T02:20:31;8.10;;;3.40;;
27505;SDS011;14939;43.596;1.320;2022-09-14T02:23:01;8.00;;;3.25;;
27505;SDS011;14939;43.596;1.320;2022-09-14T02:25:27;8.98;;;3.10;;
27505;SDS011;14939;43.596;1.320;2022-09-14T02:27:53;11.98;;;2.78;;
27505;SDS011;14939;43.596;1.320;2022-09-14T02:30:19;11.10;;;3.55;;
27505;SDS011;14939;43.596;1.320;2022-09-14T02:35:51;9.65;;;3.90;;
27505;SDS011;14939;43.596;1.320;2022-09-14T02:41:49;8.85;;;4.18;;
27505;SDS011;14939;43.596;1.320;2022-09-14T02:44:42;13.52;;;4.60;;
27505;SDS011;14939;43.596;1.320;2022-09-14T02:47:26;12.25;;;4.63;;
27505;SDS011;14939;43.596;1.320;2022-09-14T02:55:41;14.98;;;5.85;;
27505;SDS011;14939;43.596;1.320;2022-09-14T02:58:16;15.65;;;7.32;;
27505;SDS011;14939;43.596;1.320;2022-09-14T03:00:45;19.85;;;8.80;;
27505;SDS011;14939;43.596;1.320;2022-09-14T03:05:44;20.35;;;8.75;;
27505;SDS011;14939;43.596;1.320;2022-09-14T03:08:10;26.80;;;9.05;;
27505;SDS011;14939;43.596;1.320;2022-09-14T03:10:36;17.73;;;8.55;;
27505;SDS011;14939;43.596;1.320;2022-09-14T03:13:02;18.20;;;7.38;;
27505;SDS011;14939;43.596;1.320;2022-09-14T03:15:28;18.58;;;7.22;;
27505;SDS011;14939;43.596;1.320;2022-09-14T03:17:54;17.13;;;5.80;;
27505;SDS011;14939;43.596;1.320;2022-09-14T03:20:24;15.77;;;5.07;;
27505;SDS011;14939;43.596;1.320;2022-09-14T03:22:52;15.07;;;5.10;;
27505;SDS011;14939;43.596;1.320;2022-09-14T03:25:18;11.45;;;4.90;;
27505;SDS011;14939;43.596;1.320;2022-09-14T03:27:50;17.23;;;4.97;;
27505;SDS011;14939;43.596;1.320;2022-09-14T03:30:18;14.55;;;4.90;;
27505;SDS011;14939;43.596;1.320;2022-09-14T03:32:44;15.65;;;4.57;;
27505;SDS011;14939;43.596;1.320;2022-09-14T03:35:10;11.88;;;4.47;;
27505;SDS011;14939;43.596;1.320;2022-09-14T03:37:37;16.42;;;4.35;;
27505;SDS011;14939;43.596;1.320;2022-09-14T03:40:05;12.70;;;4.43;;
27505;SDS011;14939;43.596;1.320;2022-09-14T03:42:32;9.93;;;3.92;;
27505;SDS011;14939;43.596;1.320;2022-09-14T03:44:57;12.65;;;4.28;;
27505;SDS011;14939;43.596;1.320;2022-09-14T03:47:23;10.77;;;4.18;;
27505;SDS011;14939;43.596;1.320;2022-09-14T03:49:49;13.73;;;4.30;;
27505;SDS011;14939;43.596;1.320;2022-09-14T03:52:15;12.20;;;4.55;;
27505;SDS011;14939;43.596;1.320;2022-09-14T03:54:41;13.25;;;4.22;;
27505;SDS011;14939;43.596;1.320;2022-09-14T03:57:07;15.77;;;4.90;;
27505;SDS011;14939;43.596;1.320;2022-09-14T03:59:32;11.68;;;4.63;;
27505;SDS011;14939;43.596;1.320;2022-09-14T04:01:58;12.00;;;4.40;;
27505;SDS011;14939;43.596;1.320;2022-09-14T04:04:24;15.63;;;4.47;;
27505;SDS011;14939;43.596;1.320;2022-09-14T04:06:50;13.25;;;4.97;;
27505;SDS011;14939;43.596;1.320;2022-09-14T04:09:16;12.15;;;4.40;;
27505;SDS011;14939;43.596;1.320;2022-09-14T04:11:43;14.18;;;4.82;;
27505;SDS011;14939;43.596;1.320;2022-09-14T04:14:10;14.40;;;5.18;;
27505;SDS011;14939;43.596;1.320;2022-09-14T04:16:37;14.93;;;4.75;;
27505;SDS011;14939;43.596;1.320;2022-09-14T04:19:03;12.80;;;4.75;;
27505;SDS011;14939;43.596;1.320;2022-09-14T04:21:28;11.52;;;4.40;;
27505;SDS011;14939;43.596;1.320;2022-09-14T04:23:55;11.50;;;4.80;;
27505;SDS011;14939;43.596;1.320;2022-09-14T04:26:22;11.55;;;4.13;;
27505;SDS011;14939;43.596;1.320;2022-09-14T04:28:50;10.13;;;3.80;;
27505;SDS011;14939;43.596;1.320;2022-09-14T04:31:16;13.50;;;3.72;;
27505;SDS011;14939;43.596;1.320;2022-09-14T04:33:42;11.77;;;3.38;;
27505;SDS011;14939;43.596;1.320;2022-09-14T04:36:08;10.60;;;3.67;;
27505;SDS011;14939;43.596;1.320;2022-09-14T04:38:36;8.50;;;3.17;;
27505;SDS011;14939;43.596;1.320;2022-09-14T04:41:03;9.57;;;3.05;;
27505;SDS011;14939;43.596;1.320;2022-09-14T04:43:31;11.55;;;3.30;;
27505;SDS011;14939;43.596;1.320;2022-09-14T04:46:03;11.73;;;3.45;;
27505;SDS011;14939;43.596;1.320;2022-09-14T04:48:31;12.88;;;3.50;;
27505;SDS011;14939;43.596;1.320;2022-09-14T04:51:01;8.57;;;2.95;;
27505;SDS011;14939;43.596;1.320;2022-09-14T04:55:59;10.05;;;3.15;;
27505;SDS011;14939;43.596;1.320;2022-09-14T04:58:26;9.27;;;3.33;;
27505;SDS011;14939;43.596;1.320;2022-09-14T05:00:53;10.90;;;3.00;;
27505;SDS011;14939;43.596;1.320;2022-09-14T05:03:24;11.17;;;3.13;;
27505;SDS011;14939;43.596;1.320;2022-09-14T05:05:50;12.25;;;3.40;;
27505;SDS011;14939;43.596;1.320;2022-09-14T05:08:15;11.05;;;3.08;;
27505;SDS011;14939;43.596;1.320;2022-09-14T05:10:41;9.55;;;2.83;;
27505;SDS011;14939;43.596;1.320;2022-09-14T05:13:07;8.82;;;3.30;;
27505;SDS011;14939;43.596;1.320;2022-09-14T05:15:33;8.10;;;3.10;;
27505;SDS011;14939;43.596;1.320;2022-09-14T05:17:58;5.85;;;2.78;;
27505;SDS011;14939;43.596;1.320;2022-09-14T05:20:24;10.63;;;2.95;;
27505;SDS011;14939;43.596;1.320;2022-09-14T05:22:49;7.75;;;3.10;;
27505;SDS011;14939;43.596;1.320;2022-09-14T05:25:15;6.82;;;2.97;;
27505;SDS011;14939;43.596;1.320;2022-09-14T05:27:41;9.43;;;2.80;;
27505;SDS011;14939;43.596;1.320;2022-09-14T05:30:07;9.35;;;3.10;;
27505;SDS011;14939;43.596;1.320;2022-09-14T05:32:33;6.88;;;2.72;;
27505;SDS011;14939;43.596;1.320;2022-09-14T05:34:59;10.82;;;2.80;;
27505;SDS011;14939;43.596;1.320;2022-09-14T05:37:24;7.93;;;2.33;;
27505;SDS011;14939;43.596;1.320;2022-09-14T05:39:50;9.20;;;2.80;;
27505;SDS011;14939;43.596;1.320;2022-09-14T05:42:16;6.85;;;2.67;;
27505;SDS011;14939;43.596;1.320;2022-09-14T05:44:41;8.40;;;2.78;;
27505;SDS011;14939;43.596;1.320;2022-09-14T05:47:07;10.07;;;2.70;;
27505;SDS011;14939;43.596;1.320;2022-09-14T05:49:32;7.63;;;2.55;;
27505;SDS011;14939;43.596;1.320;2022-09-14T05:51:58;6.75;;;2.60;;
27505;SDS011;14939;43.596;1.320;2022-09-14T05:54:24;7.85;;;2.75;;
27505;SDS011;14939;43.596;1.320;2022-09-14T05:56:49;10.68;;;2.55;;
27505;SDS011;14939;43.596;1.320;2022-09-14T05:59:15;7.93;;;2.50;;
27505;SDS011;14939;43.596;1.320;2022-09-14T06:01:41;15.07;;;2.63;;
27505;SDS011;14939;43.596;1.320;2022-09-14T06:04:07;6.00;;;2.22;;
27505;SDS011;14939;43.596;1.320;2022-09-14T06:06:35;7.65;;;2.40;;
27505;SDS011;14939;43.596;1.320;2022-09-14T06:09:01;10.20;;;2.47;;
27505;SDS011;14939;43.596;1.320;2022-09-14T06:11:29;10.93;;;2.10;;
27505;SDS011;14939;43.596;1.320;2022-09-14T06:13:57;6.38;;;2.00;;
27505;SDS011;14939;43.596;1.320;2022-09-14T06:16:24;6.55;;;2.10;;
27505;SDS011;14939;43.596;1.320;2022-09-14T06:18:51;12.02;;;2.90;;
27505;SDS011;14939;43.596;1.320;2022-09-14T06:21:19;6.18;;;2.10;;
27505;SDS011;14939;43.596;1.320;2022-09-14T06:23:46;8.40;;;2.40;;
27505;SDS011;14939;43.596;1.320;2022-09-14T06:26:14;9.60;;;2.50;;
27505;SDS011;14939;43.596;1.320;2022-09-14T06:28:40;5.22;;;2.17;;
27505;SDS011;14939;43.596;1.320;2022-09-14T06:31:09;10.30;;;2.20;;
27505;SDS011;14939;43.596;1.320;2022-09-14T06:33:36;5.85;;;2.10;;
27505;SDS011;14939;43.596;1.320;2022-09-14T06:36:06;7.97;;;2.30;;
27505;SDS011;14939;43.596;1.320;2022-09-14T06:38:36;8.88;;;2.30;;
27505;SDS011;14939;43.596;1.320;2022-09-14T06:41:03;8.93;;;2.20;;
27505;SDS011;14939;43.596;1.320;2022-09-14T06:43:31;8.27;;;2.50;;
27505;SDS011;14939;43.596;1.320;2022-09-14T06:45:59;11.07;;;2.30;;
27505;SDS011;14939;43.596;1.320;2022-09-14T06:48:31;6.55;;;2.55;;
27505;SDS011;14939;43.596;1.320;2022-09-14T06:50:58;11.13;;;2.70;;
27505;SDS011;14939;43.596;1.320;2022-09-14T06:53:24;7.40;;;2.50;;
27505;SDS011;14939;43.596;1.320;2022-09-14T06:55:50;9.90;;;2.67;;
27505;SDS011;14939;43.596;1.320;2022-09-14T06:58:18;10.45;;;2.70;;
27505;SDS011;14939;43.596;1.320;2022-09-14T07:00:44;8.32;;;2.40;;
27505;SDS011;14939;43.596;1.320;2022-09-14T07:03:10;7.47;;;2.70;;
27505;SDS011;14939;43.596;1.320;2022-09-14T07:05:36;8.13;;;2.60;;
27505;SDS011;14939;43.596;1.320;2022-09-14T07:08:01;12.00;;;2.80;;
27505;SDS011;14939;43.596;1.320;2022-09-14T07:10:27;10.88;;;2.70;;
27505;SDS011;14939;43.596;1.320;2022-09-14T07:12:53;9.82;;;2.90;;
27505;SDS011;14939;43.596;1.320;2022-09-14T07:15:19;8.40;;;2.78;;
27505;SDS011;14939;43.596;1.320;2022-09-14T07:17:46;12.95;;;3.00;;
27505;SDS011;14939;43.596;1.320;2022-09-14T07:20:11;11.88;;;3.22;;
27505;SDS011;14939;43.596;1.320;2022-09-14T07:22:39;10.50;;;2.72;;
27505;SDS011;14939;43.596;1.320;2022-09-14T07:25:05;10.20;;;2.85;;
27505;SDS011;14939;43.596;1.320;2022-09-14T07:27:32;12.07;;;2.40;;
27505;SDS011;14939;43.596;1.320;2022-09-14T07:29:58;11.73;;;2.90;;
27505;SDS011;14939;43.596;1.320;2022-09-14T07:32:24;8.20;;;2.35;;
27505;SDS011;14939;43.596;1.320;2022-09-14T07:34:49;6.50;;;2.13;;
27505;SDS011;14939;43.596;1.320;2022-09-14T07:37:15;11.23;;;3.03;;
27505;SDS011;14939;43.596;1.320;2022-09-14T07:39:40;6.57;;;2.30;;
27505;SDS011;14939;43.596;1.320;2022-09-14T07:42:06;7.47;;;2.17;;
27505;SDS011;14939;43.596;1.320;2022-09-14T07:44:32;7.43;;;2.38;;
27505;SDS011;14939;43.596;1.320;2022-09-14T07:46:57;9.00;;;2.17;;
27505;SDS011;14939;43.596;1.320;2022-09-14T07:49:23;10.27;;;2.75;;
27505;SDS011;14939;43.596;1.320;2022-09-14T07:51:51;8.30;;;2.80;;
27505;SDS011;14939;43.596;1.320;2022-09-14T07:54:17;8.98;;;2.85;;
27505;SDS011;14939;43.596;1.320;2022-09-14T07:56:43;11.63;;;2.92;;
27505;SDS011;14939;43.596;1.320;2022-09-14T07:59:10;10.95;;;2.90;;
27505;SDS011;14939;43.596;1.320;2022-09-14T08:01:37;17.63;;;3.03;;
27505;SDS011;14939;43.596;1.320;2022-09-14T08:04:03;8.52;;;2.50;;
27505;SDS011;14939;43.596;1.320;2022-09-14T08:06:29;9.25;;;2.38;;
27505;SDS011;14939;43.596;1.320;2022-09-14T08:08:55;7.40;;;2.22;;
27505;SDS011;14939;43.596;1.320;2022-09-14T08:11:22;10.20;;;3.00;;
27505;SDS011;14939;43.596;1.320;2022-09-14T08:13:54;10.52;;;2.72;;
27505;SDS011;14939;43.596;1.320;2022-09-14T08:16:24;8.38;;;2.40;;
27505;SDS011;14939;43.596;1.320;2022-09-14T08:18:54;14.20;;;2.50;;
27505;SDS011;14939;43.596;1.320;2022-09-14T08:21:21;12.18;;;3.05;;
27505;SDS011;14939;43.596;1.320;2022-09-14T08:23:48;25.80;;;3.58;;
27505;SDS011;14939;43.596;1.320;2022-09-14T08:26:15;9.63;;;2.35;;
27505;SDS011;14939;43.596;1.320;2022-09-14T08:28:43;12.65;;;2.70;;
27505;SDS011;14939;43.596;1.320;2022-09-14T08:31:14;11.52;;;2.85;;
27505;SDS011;14939;43.596;1.320;2022-09-14T08:33:52;7.95;;;2.72;;
27505;SDS011;14939;43.596;1.320;2022-09-14T08:36:20;9.07;;;2.35;;
27505;SDS011;14939;43.596;1.320;2022-09-14T08:38:47;12.77;;;2.45;;
27505;SDS011;14939;43.596;1.320;2022-09-14T08:47:03;10.38;;;2.50;;
27505;SDS011;14939;43.596;1.320;2022-09-14T08:52:12;9.30;;;3.28;;
27505;SDS011;14939;43.596;1.320;2022-09-14T08:54:58;9.65;;;2.85;;
27505;SDS011;14939;43.596;1.320;2022-09-14T08:57:33;6.95;;;2.55;;
27505;SDS011;14939;43.596;1.320;2022-09-14T09:05:29;9.88;;;2.60;;
27505;SDS011;14939;43.596;1.320;2022-09-14T09:10:39;9.23;;;2.85;;
27505;SDS011;14939;43.596;1.320;2022-09-14T09:13:06;14.35;;;3.70;;
27505;SDS011;14939;43.596;1.320;2022-09-14T09:15:42;11.38;;;2.88;;
27505;SDS011;14939;43.596;1.320;2022-09-14T09:18:14;15.35;;;3.22;;
27505;SDS011;14939;43.596;1.320;2022-09-14T09:20:49;12.02;;;3.20;;
27505;SDS011;14939;43.596;1.320;2022-09-14T09:23:21;9.95;;;2.83;;
27505;SDS011;14939;43.596;1.320;2022-09-14T09:28:20;8.23;;;2.92;;
27505;SDS011;14939;43.596;1.320;2022-09-14T09:30:47;10.55;;;3.00;;
27505;SDS011;14939;43.596;1.320;2022-09-14T09:33:19;12.95;;;2.80;;
27505;SDS011;14939;43.596;1.320;2022-09-14T09:35:47;8.27;;;3.15;;
27505;SDS011;14939;43.596;1.320;2022-09-14T09:38:15;13.50;;;2.70;;
27505;SDS011;14939;43.596;1.320;2022-09-14T09:40:53;7.28;;;2.80;;
27505;SDS011;14939;43.596;1.320;2022-09-14T09:43:25;10.45;;;3.03;;
27505;SDS011;14939;43.596;1.320;2022-09-14T09:48:30;7.65;;;2.83;;
27505;SDS011;14939;43.596;1.320;2022-09-14T09:53:33;10.40;;;2.70;;
27505;SDS011;14939;43.596;1.320;2022-09-14T09:56:02;10.27;;;2.78;;
27505;SDS011;14939;43.596;1.320;2022-09-14T09:58:38;13.63;;;3.20;;
27505;SDS011;14939;43.596;1.320;2022-09-14T10:01:08;10.35;;;2.80;;
27505;SDS011;14939;43.596;1.320;2022-09-14T10:04:08;8.25;;;3.00;;
27505;SDS011;14939;43.596;1.320;2022-09-14T10:06:48;11.88;;;2.63;;
27505;SDS011;14939;43.596;1.320;2022-09-14T10:09:20;6.38;;;2.72;;
27505;SDS011;14939;43.596;1.320;2022-09-14T10:12:12;10.13;;;2.75;;
27505;SDS011;14939;43.596;1.320;2022-09-14T10:14:39;7.35;;;3.00;;
27505;SDS011;14939;43.596;1.320;2022-09-14T10:17:07;11.77;;;2.97;;
27505;SDS011;14939;43.596;1.320;2022-09-14T10:19:45;14.27;;;3.42;;
27505;SDS011;14939;43.596;1.320;2022-09-14T10:22:26;12.90;;;2.85;;
27505;SDS011;14939;43.596;1.320;2022-09-14T10:27:31;13.10;;;3.53;;
27505;SDS011;14939;43.596;1.320;2022-09-14T10:30:09;12.63;;;3.50;;
27505;SDS011;14939;43.596;1.320;2022-09-14T10:32:39;10.38;;;3.05;;
27505;SDS011;14939;43.596;1.320;2022-09-14T10:35:10;13.55;;;3.60;;
27505;SDS011;14939;43.596;1.320;2022-09-14T10:37:42;7.85;;;2.65;;
27505;SDS011;14939;43.596;1.320;2022-09-14T10:40:41;9.32;;;3.10;;
27505;SDS011;14939;43.596;1.320;2022-09-14T10:43:16;9.48;;;3.05;;
27505;SDS011;14939;43.596;1.320;2022-09-14T10:46:04;9.63;;;3.03;;
27505;SDS011;14939;43.596;1.320;2022-09-14T10:55:20;8.15;;;2.75;;
27505;SDS011;14939;43.596;1.320;2022-09-14T11:00:49;9.13;;;2.55;;
27505;SDS011;14939;43.596;1.320;2022-09-14T11:09:18;9.70;;;2.22;;
27505;SDS011;14939;43.596;1.320;2022-09-14T11:25:32;7.10;;;2.35;;
27505;SDS011;14939;43.596;1.320;2022-09-14T11:28:04;7.72;;;2.33;;
27505;SDS011;14939;43.596;1.320;2022-09-14T11:30:39;8.40;;;2.15;;
27505;SDS011;14939;43.596;1.320;2022-09-14T11:35:44;6.90;;;2.10;;
27505;SDS011;14939;43.596;1.320;2022-09-14T11:38:39;9.48;;;2.30;;
27505;SDS011;14939;43.596;1.320;2022-09-14T11:41:15;6.63;;;2.05;;
27505;SDS011;14939;43.596;1.320;2022-09-14T11:44:03;7.97;;;2.22;;
27505;SDS011;14939;43.596;1.320;2022-09-14T11:47:07;8.82;;;2.40;;
27505;SDS011;14939;43.596;1.320;2022-09-14T11:52:23;9.30;;;2.13;;
27505;SDS011;14939;43.596;1.320;2022-09-14T11:54:51;5.13;;;1.60;;
27505;SDS011;14939;43.596;1.320;2022-09-14T11:57:25;8.52;;;1.67;;
27505;SDS011;14939;43.596;1.320;2022-09-14T11:59:56;8.70;;;1.70;;
27505;SDS011;14939;43.596;1.320;2022-09-14T12:25:51;5.13;;;1.50;;
27505;SDS011;14939;43.596;1.320;2022-09-14T12:28:35;5.40;;;1.75;;
27505;SDS011;14939;43.596;1.320;2022-09-14T12:36:02;6.47;;;1.70;;
27505;SDS011;14939;43.596;1.320;2022-09-14T12:56:39;4.97;;;1.55;;
27505;SDS011;14939;43.596;1.320;2022-09-14T13:04:43;8.50;;;2.03;;
27505;SDS011;14939;43.596;1.320;2022-09-14T13:07:13;6.80;;;1.52;;
27505;SDS011;14939;43.596;1.320;2022-09-14T13:09:50;7.05;;;1.52;;
27505;SDS011;14939;43.596;1.320;2022-09-14T13:15:25;6.85;;;1.90;;
27505;SDS011;14939;43.596;1.320;2022-09-14T13:18:01;4.03;;;1.52;;
27505;SDS011;14939;43.596;1.320;2022-09-14T13:20:36;8.30;;;1.98;;
27505;SDS011;14939;43.596;1.320;2022-09-14T13:23:02;6.85;;;2.05;;
27505;SDS011;14939;43.596;1.320;2022-09-14T13:25:42;7.53;;;1.60;;
27505;SDS011;14939;43.596;1.320;2022-09-14T13:28:12;7.10;;;1.80;;
27505;SDS011;14939;43.596;1.320;2022-09-14T13:30:40;9.50;;;2.05;;
27505;SDS011;14939;43.596;1.320;2022-09-14T13:33:13;6.70;;;1.90;;
27505;SDS011;14939;43.596;1.320;2022-09-14T13:35:54;7.25;;;1.92;;
27505;SDS011;14939;43.596;1.320;2022-09-14T13:38:30;7.20;;;1.67;;
27505;SDS011;14939;43.596;1.320;2022-09-14T13:41:05;6.45;;;1.60;;
27505;SDS011;14939;43.596;1.320;2022-09-14T13:43:34;4.82;;;1.55;;
27505;SDS011;14939;43.596;1.320;2022-09-14T13:46:01;6.63;;;1.77;;
27505;SDS011;14939;43.596;1.320;2022-09-14T13:48:32;7.72;;;1.90;;
27505;SDS011;14939;43.596;1.320;2022-09-14T13:50:59;7.60;;;1.90;;
27505;SDS011;14939;43.596;1.320;2022-09-14T13:53:45;6.68;;;1.90;;
27505;SDS011;14939;43.596;1.320;2022-09-14T14:01:39;8.88;;;1.80;;
27505;SDS011;14939;43.596;1.320;2022-09-14T14:07:03;6.13;;;1.67;;
27505;SDS011;14939;43.596;1.320;2022-09-14T14:09:44;8.90;;;1.73;;
27505;SDS011;14939;43.596;1.320;2022-09-14T14:12:11;8.93;;;2.00;;
27505;SDS011;14939;43.596;1.320;2022-09-14T14:14:57;5.20;;;1.60;;
27505;SDS011;14939;43.596;1.320;2022-09-14T14:17:29;6.43;;;1.80;;
27505;SDS011;14939;43.596;1.320;2022-09-14T14:19:58;7.60;;;1.88;;
27505;SDS011;14939;43.596;1.320;2022-09-14T14:22:53;5.53;;;1.73;;
27505;SDS011;14939;43.596;1.320;2022-09-14T14:25:38;7.55;;;2.00;;
27505;SDS011;14939;43.596;1.320;2022-09-14T14:28:13;7.22;;;1.90;;
27505;SDS011;14939;43.596;1.320;2022-09-14T14:30:41;5.65;;;1.88;;
27505;SDS011;14939;43.596;1.320;2022-09-14T14:33:14;7.53;;;2.13;;
27505;SDS011;14939;43.596;1.320;2022-09-14T14:35:43;6.70;;;1.77;;
27505;SDS011;14939;43.596;1.320;2022-09-14T14:38:10;5.00;;;1.63;;
27505;SDS011;14939;43.596;1.320;2022-09-14T14:40:36;8.18;;;2.00;;
27505;SDS011;14939;43.596;1.320;2022-09-14T14:43:02;9.48;;;1.88;;
27505;SDS011;14939;43.596;1.320;2022-09-14T14:45:29;7.55;;;2.00;;
27505;SDS011;14939;43.596;1.320;2022-09-14T14:47:57;7.28;;;1.58;;
27505;SDS011;14939;43.596;1.320;2022-09-14T14:50:25;6.30;;;1.70;;
27505;SDS011;14939;43.596;1.320;2022-09-14T14:52:58;6.55;;;1.80;;
27505;SDS011;14939;43.596;1.320;2022-09-14T14:55:25;4.90;;;1.67;;
27505;SDS011;14939;43.596;1.320;2022-09-14T14:57:59;6.63;;;1.75;;
27505;SDS011;14939;43.596;1.320;2022-09-14T15:00:27;7.57;;;1.80;;
27505;SDS011;14939;43.596;1.320;2022-09-14T15:02:54;8.45;;;1.65;;
27505;SDS011;14939;43.596;1.320;2022-09-14T15:05:20;7.57;;;1.83;;
27505;SDS011;14939;43.596;1.320;2022-09-14T15:07:45;6.68;;;1.75;;
27505;SDS011;14939;43.596;1.320;2022-09-14T15:10:14;6.15;;;1.95;;
27505;SDS011;14939;43.596;1.320;2022-09-14T15:12:40;9.30;;;1.95;;
27505;SDS011;14939;43.596;1.320;2022-09-14T15:15:20;10.32;;;1.98;;
27505;SDS011;14939;43.596;1.320;2022-09-14T15:17:48;7.32;;;1.80;;
27505;SDS011;14939;43.596;1.320;2022-09-14T15:20:14;6.68;;;2.00;;
27505;SDS011;14939;43.596;1.320;2022-09-14T15:22:39;8.52;;;2.08;;
27505;SDS011;14939;43.596;1.320;2022-09-14T15:25:09;7.50;;;1.65;;
27505;SDS011;14939;43.596;1.320;2022-09-14T15:27:36;10.40;;;2.00;;
27505;SDS011;14939;43.596;1.320;2022-09-14T15:30:02;7.93;;;1.73;;
27505;SDS011;14939;43.596;1.320;2022-09-14T15:32:28;6.72;;;1.70;;
27505;SDS011;14939;43.596;1.320;2022-09-14T15:34:54;6.22;;;1.50;;
27505;SDS011;14939;43.596;1.320;2022-09-14T15:37:19;8.90;;;2.00;;
27505;SDS011;14939;43.596;1.320;2022-09-14T15:39:45;8.77;;;1.95;;
27505;SDS011;14939;43.596;1.320;2022-09-14T15:42:11;6.40;;;1.50;;
27505;SDS011;14939;43.596;1.320;2022-09-14T15:44:38;9.68;;;1.90;;
27505;SDS011;14939;43.596;1.320;2022-09-14T15:47:03;7.88;;;1.80;;
27505;SDS011;14939;43.596;1.320;2022-09-14T15:49:29;7.95;;;1.90;;
27505;SDS011;14939;43.596;1.320;2022-09-14T15:51:55;27.58;;;1.95;;
27505;SDS011;14939;43.596;1.320;2022-09-14T15:54:23;17.23;;;1.77;;
27505;SDS011;14939;43.596;1.320;2022-09-14T15:56:54;8.95;;;1.27;;
27505;SDS011;14939;43.596;1.320;2022-09-14T15:59:21;4.28;;;1.10;;
27505;SDS011;14939;43.596;1.320;2022-09-14T16:01:47;7.18;;;1.17;;
27505;SDS011;14939;43.596;1.320;2022-09-14T16:04:12;8.73;;;1.42;;
27505;SDS011;14939;43.596;1.320;2022-09-14T16:06:38;14.38;;;2.47;;
27505;SDS011;14939;43.596;1.320;2022-09-14T16:09:06;6.80;;;2.17;;
27505;SDS011;14939;43.596;1.320;2022-09-14T16:11:33;10.95;;;2.00;;
27505;SDS011;14939;43.596;1.320;2022-09-14T16:13:59;7.10;;;1.83;;
27505;SDS011;14939;43.596;1.320;2022-09-14T16:16:25;5.38;;;1.83;;
27505;SDS011;14939;43.596;1.320;2022-09-14T16:18:51;6.90;;;1.50;;
27505;SDS011;14939;43.596;1.320;2022-09-14T16:23:51;6.90;;;1.40;;
27505;SDS011;14939;43.596;1.320;2022-09-14T16:26:20;4.68;;;1.30;;
27505;SDS011;14939;43.596;1.320;2022-09-14T16:28:48;6.65;;;1.60;;
27505;SDS011;14939;43.596;1.320;2022-09-14T16:31:21;5.60;;;1.50;;
27505;SDS011;14939;43.596;1.320;2022-09-14T16:33:53;4.38;;;1.75;;
27505;SDS011;14939;43.596;1.320;2022-09-14T16:36:21;4.05;;;1.48;;
27505;SDS011;14939;43.596;1.320;2022-09-14T16:38:50;3.45;;;1.30;;
27505;SDS011;14939;43.596;1.320;2022-09-14T16:41:16;5.75;;;1.40;;
27505;SDS011;14939;43.596;1.320;2022-09-14T16:43:42;5.75;;;1.90;;
27505;SDS011;14939;43.596;1.320;2022-09-14T16:46:10;7.15;;;2.08;;
27505;SDS011;14939;43.596;1.320;2022-09-14T16:48:38;6.68;;;2.08;;
27505;SDS011;14939;43.596;1.320;2022-09-14T16:51:05;6.53;;;1.73;;
27505;SDS011;14939;43.596;1.320;2022-09-14T16:53:34;4.40;;;1.35;;
27505;SDS011;14939;43.596;1.320;2022-09-14T16:56:06;4.90;;;1.50;;
27505;SDS011;14939;43.596;1.320;2022-09-14T16:58:34;4.72;;;1.50;;
27505;SDS011;14939;43.596;1.320;2022-09-14T17:01:07;8.40;;;2.08;;
27505;SDS011;14939;43.596;1.320;2022-09-14T17:03:36;3.67;;;1.42;;
27505;SDS011;14939;43.596;1.320;2022-09-14T17:06:02;4.88;;;1.60;;
27505;SDS011;14939;43.596;1.320;2022-09-14T17:08:30;7.15;;;1.75;;
27505;SDS011;14939;43.596;1.320;2022-09-14T17:10:57;4.97;;;1.55;;
27505;SDS011;14939;43.596;1.320;2022-09-14T17:13:23;7.65;;;1.67;;
27505;SDS011;14939;43.596;1.320;2022-09-14T17:15:49;5.43;;;1.50;;
27505;SDS011;14939;43.596;1.320;2022-09-14T17:18:15;6.30;;;1.60;;
27505;SDS011;14939;43.596;1.320;2022-09-14T17:20:51;8.02;;;1.92;;
27505;SDS011;14939;43.596;1.320;2022-09-14T17:23:20;7.05;;;1.58;;
27505;SDS011;14939;43.596;1.320;2022-09-14T17:25:46;8.30;;;1.90;;
27505;SDS011;14939;43.596;1.320;2022-09-14T17:28:12;5.13;;;1.80;;
27505;SDS011;14939;43.596;1.320;2022-09-14T17:30:39;6.68;;;1.95;;
27505;SDS011;14939;43.596;1.320;2022-09-14T17:33:05;13.30;;;1.90;;
27505;SDS011;14939;43.596;1.320;2022-09-14T17:35:31;9.38;;;2.28;;
27505;SDS011;14939;43.596;1.320;2022-09-14T17:37:57;15.35;;;2.55;;
27505;SDS011;14939;43.596;1.320;2022-09-14T17:40:23;8.10;;;2.60;;